Comfort, West Virginia
Current Conditions -  °F | °C
As of 3:54 AM on Monday 22 Dec 2014 (Local Time) from KCRW Reporting Station
Scattered Clouds Scattered Clouds  
Wind Chill: 31°   Ceiling: Unl
Heat Index: 31°   Visibility: 10mi
Dew Point: 27°   Wind: 0mph
Humidity: 85%   Direction: NA
Pressure: 30.08"   Gusts: NA
Location:  38.12°N, 81.62°W
Report Text: KCRW 220854Z 00000KT 10SM SCT043 M01/M03 A3008 RMK AO2 SLP192 T10061028 56013
Loading
Personal Weather Stations






























Interactive Weather Map New forecast layout! Learn more

10-Day Weather Forecast

Advertisements
Track Severe Weather on mobile